Time;durP1;ratioP1;P1;durP2;ratioP2;P2;SDS_P1;SDS_P2;PMS_P1;PMS_P2;Temp;Humidity;BMP_temperature;BMP_pressure;BME280_temperature;BME280_humidity;BME280_pressure;Samples;Min_cycle;Max_cycle;Signal;HPM_P1;HPM_P2
2024/04/20 00:00:59;;;;;;;1.53;1.30;;;6.40;98.20;;;;;;5263762;26;20620;-77
2024/04/20 00:03:27;;;;;;;1.50;1.30;;;6.40;98.20;;;;;;5270857;27;20550;-77
2024/04/20 00:05:56;;;;;;;1.53;1.30;;;6.40;98.20;;;;;;5270047;26;20840;-77
2024/04/20 00:08:24;;;;;;;1.50;1.27;;;6.40;98.20;;;;;;5271798;27;20583;-77
2024/04/20 00:10:53;;;;;;;1.57;1.30;;;6.40;98.20;;;;;;5261431;26;20484;-76
2024/04/20 00:13:24;;;;;;;1.50;1.27;;;6.40;98.20;;;;;;5265843;27;20538;-77
2024/04/20 00:15:52;;;;;;;1.50;1.30;;;6.40;98.20;;;;;;5261126;26;20481;-76
2024/04/20 00:18:21;;;;;;;1.50;1.27;;;6.30;98.20;;;;;;5269908;27;20619;-77
2024/04/20 00:20:49;;;;;;;1.50;1.30;;;6.30;98.20;;;;;;5265439;26;20523;-76
2024/04/20 00:23:17;;;;;;;1.50;1.30;;;6.30;98.20;;;;;;5269358;27;23308;-77
2024/04/20 00:25:46;;;;;;;1.53;1.30;;;6.30;98.20;;;;;;5272590;27;21320;-77
2024/04/20 00:28:14;;;;;;;1.50;1.30;;;6.20;98.20;;;;;;5239910;27;20504;-77
2024/04/20 00:31:01;;;;;;;1.57;1.30;;;6.20;98.20;;;;;;5270975;27;20544;-76
2024/04/20 00:33:31;;;;;;;1.57;1.30;;;6.10;98.20;;;;;;5228436;27;20560;-77
2024/04/20 00:35:59;;;;;;;1.50;1.30;;;6.10;98.20;;;;;;5257408;26;20938;-76
2024/04/20 00:38:28;;;;;;;1.50;1.30;;;6.10;98.20;;;;;;5273023;27;21046;-77
2024/04/20 00:40:57;;;;;;;1.50;1.30;;;6.10;98.20;;;;;;5260769;26;20548;-77
2024/04/20 00:43:26;;;;;;;1.60;1.40;;;6.00;98.20;;;;;;5266331;27;21113;-76
2024/04/20 00:45:59;;;;;;;1.50;1.20;;;6.00;98.20;;;;;;5265151;26;20699;-76
2024/04/20 00:48:29;;;;;;;1.60;1.40;;;6.00;98.20;;;;;;5270641;27;20529;-77
2024/04/20 00:50:59;;;;;;;1.53;1.30;;;5.90;98.20;;;;;;5255809;26;20586;-76
2024/04/20 00:53:28;;;;;;;1.60;1.37;;;5.90;98.20;;;;;;5278875;27;21012;-77
2024/04/20 00:55:57;;;;;;;1.50;1.20;;;5.90;98.20;;;;;;5257737;26;20473;-76
2024/04/20 00:58:25;;;;;;;1.60;1.30;;;5.80;98.20;;;;;;5274180;27;21094;-76
2024/04/20 01:01:04;;;;;;;1.57;1.30;;;5.80;98.20;;;;;;5257696;26;20617;-76
2024/04/20 01:03:32;;;;;;;1.60;1.30;;;5.80;98.20;;;;;;5262310;27;20485;-77
2024/04/20 01:06:01;;;;;;;1.57;1.30;;;5.80;98.20;;;;;;5254999;26;20557;-77
2024/04/20 01:08:30;;;;;;;1.50;1.30;;;5.70;98.20;;;;;;5276648;26;20469;-77
2024/04/20 01:11:00;;;;;;;1.53;1.30;;;5.70;98.20;;;;;;5256110;26;20566;-76
2024/04/20 01:13:31;;;;;;;1.60;1.40;;;5.70;98.20;;;;;;5273754;27;21106;-77
2024/04/20 01:16:02;;;;;;;1.60;1.30;;;5.70;98.20;;;;;;5252628;26;20472;-76
2024/04/20 01:18:31;;;;;;;1.50;1.30;;;5.70;98.20;;;;;;5275011;27;20596;-77
2024/04/20 01:20:59;;;;;;;1.53;1.30;;;5.70;98.20;;;;;;5257425;26;20473;-76
2024/04/20 01:23:25;;;;;;;1.57;1.30;;;5.60;98.20;;;;;;5277266;27;20595;-76
2024/04/20 01:25:57;;;;;;;1.50;1.30;;;5.60;98.20;;;;;;5247802;27;20980;-76
2024/04/20 01:28:25;;;;;;;1.50;1.30;;;5.60;98.20;;;;;;5261315;27;21054;-76
2024/04/20 01:30:53;;;;;;;1.60;1.40;;;5.60;98.20;;;;;;5257249;26;20465;-77
2024/04/20 01:33:22;;;;;;;1.60;1.40;;;5.60;98.20;;;;;;5258876;27;20633;-76
2024/04/20 01:35:48;;;;;;;1.57;1.30;;;5.60;98.20;;;;;;5248805;27;20542;-77
2024/04/20 01:38:16;;;;;;;1.60;1.30;;;5.60;98.20;;;;;;5262125;26;20592;-77
2024/04/20 01:40:45;;;;;;;1.50;1.20;;;5.60;98.20;;;;;;5258354;27;20300;-77
2024/04/20 01:43:17;;;;;;;1.57;1.30;;;5.60;98.20;;;;;;5224400;27;20537;-77
2024/04/20 01:45:45;;;;;;;1.60;1.30;;;5.60;98.20;;;;;;5263005;27;20605;-76
2024/04/20 01:48:13;;;;;;;1.57;1.30;;;5.60;98.20;;;;;;5225396;27;20493;-77
2024/04/20 01:50:42;;;;;;;1.60;1.33;;;5.60;98.20;;;;;;5259900;27;20500;-76
2024/04/20 01:53:11;;;;;;;1.60;1.40;;;5.70;98.20;;;;;;5271310;27;20619;-77
2024/04/20 01:55:36;;;;;;;1.50;1.30;;;5.70;98.20;;;;;;5268222;27;21083;-77
2024/04/20 01:58:05;;;;;;;1.53;1.30;;;5.70;98.20;;;;;;5260741;26;20497;-76
2024/04/20 02:00:36;;;;;;;1.53;1.23;;;5.70;98.20;;;;;;5268927;27;20499;-77
2024/04/20 02:03:04;;;;;;;1.53;1.30;;;5.80;98.20;;;;;;5279845;26;20511;-78
2024/04/20 02:05:33;;;;;;;1.50;1.33;;;5.80;98.20;;;;;;5269688;27;20589;-77
2024/04/20 02:08:01;;;;;;;1.50;1.30;;;5.80;98.20;;;;;;5275657;26;20483;-77
2024/04/20 02:10:30;;;;;;;1.50;1.30;;;5.80;98.20;;;;;;5265704;27;20496;-77
2024/04/20 02:12:58;;;;;;;1.53;1.30;;;5.80;98.20;;;;;;5273747;27;20612;-77
2024/04/20 02:15:27;;;;;;;1.60;1.30;;;5.80;98.20;;;;;;5266672;27;21189;-78
2024/04/20 02:17:58;;;;;;;1.60;1.30;;;5.90;98.20;;;;;;5265919;26;20631;-77
2024/04/20 02:20:29;;;;;;;1.50;1.20;;;5.90;98.20;;;;;;5266992;27;20540;-77
2024/04/20 02:22:57;;;;;;;1.53;1.30;;;5.90;98.20;;;;;;5278730;26;20507;-77
2024/04/20 02:25:26;;;;;;;1.57;1.30;;;6.00;98.20;;;;;;5268916;27;20541;-77
2024/04/20 02:27:54;;;;;;;1.50;1.20;;;6.00;98.20;;;;;;5272350;26;20604;-77
2024/04/20 02:30:23;;;;;;;1.53;1.30;;;6.00;98.20;;;;;;5270526;27;20531;-77
2024/04/20 02:32:52;;;;;;;1.57;1.30;;;6.00;98.20;;;;;;5258231;27;20616;-77
2024/04/20 02:35:23;;;;;;;1.50;1.20;;;6.00;98.20;;;;;;5270074;27;21388;-78
2024/04/20 02:37:51;;;;;;;1.50;1.30;;;6.00;98.20;;;;;;5273348;26;20578;-77
2024/04/20 02:40:19;;;;;;;1.50;1.27;;;6.00;98.20;;;;;;5268009;27;20469;-76
2024/04/20 02:42:48;;;;;;;1.53;1.27;;;6.10;98.20;;;;;;5278102;26;20503;-77
2024/04/20 02:45:18;;;;;;;1.50;1.20;;;6.00;98.20;;;;;;5268892;27;20485;-77
2024/04/20 02:47:47;;;;;;;1.50;1.30;;;6.00;98.20;;;;;;5262561;26;21390;-76
2024/04/20 02:50:15;;;;;;;1.53;1.30;;;6.10;98.20;;;;;;5270012;27;20461;-77
2024/04/20 02:52:46;;;;;;;1.57;1.30;;;6.10;98.20;;;;;;5263520;26;20559;-77
2024/04/20 02:55:14;;;;;;;1.60;1.30;;;6.10;98.20;;;;;;5271005;27;20544;-80
2024/04/20 02:57:43;;;;;;;1.57;1.20;;;6.10;98.20;;;;;;5266079;27;20493;-77
2024/04/20 03:00:12;;;;;;;1.53;1.30;;;6.10;98.20;;;;;;5270324;27;20540;-77
2024/04/20 03:02:40;;;;;;;1.57;1.30;;;6.10;98.20;;;;;;5272961;26;21310;-78
2024/04/20 03:05:09;;;;;;;1.60;1.30;;;6.10;98.20;;;;;;5271765;27;20633;-77
2024/04/20 03:07:38;;;;;;;1.57;1.30;;;6.10;98.20;;;;;;5271897;26;20592;-78
2024/04/20 03:10:09;;;;;;;1.60;1.40;;;6.10;98.20;;;;;;5270142;27;20584;-77
2024/04/20 03:12:38;;;;;;;1.50;1.20;;;6.10;98.20;;;;;;5256249;26;20500;-77
2024/04/20 03:15:07;;;;;;;1.50;1.30;;;6.10;98.20;;;;;;5271538;27;20469;-77
2024/04/20 03:17:35;;;;;;;1.53;1.30;;;6.10;98.20;;;;;;5270533;26;20653;-77
2024/04/20 03:20:06;;;;;;;1.53;1.20;;;6.00;98.20;;;;;;5270025;27;20517;-77
2024/04/20 03:22:34;;;;;;;1.50;1.30;;;6.00;98.20;;;;;;5265733;26;20567;-77
2024/04/20 03:25:02;;;;;;;1.57;1.40;;;6.00;98.20;;;;;;5271213;27;20552;-76
2024/04/20 03:27:33;;;;;;;1.60;1.43;;;6.00;98.20;;;;;;5264944;26;20496;-77
2024/04/20 03:30:02;;;;;;;1.60;1.40;;;6.00;98.20;;;;;;5273325;27;20503;-77
2024/04/20 03:32:30;;;;;;;1.60;1.50;;;6.00;98.20;;;;;;5273817;27;21140;-76
2024/04/20 03:34:58;;;;;;;1.57;1.30;;;6.10;98.20;;;;;;5274103;27;21204;-76
2024/04/20 03:37:27;;;;;;;1.53;1.30;;;6.00;98.20;;;;;;5267914;27;21141;-77
2024/04/20 03:39:55;;;;;;;1.57;1.30;;;6.10;98.20;;;;;;5267795;27;20937;-77
2024/04/20 03:42:24;;;;;;;1.57;1.30;;;6.10;98.20;;;;;;5272001;26;20571;-77
2024/04/20 03:44:56;;;;;;;1.57;1.30;;;6.10;98.20;;;;;;5271772;27;20484;-77
2024/04/20 03:47:24;;;;;;;1.50;1.30;;;6.10;98.20;;;;;;5272240;26;20616;-77
2024/04/20 03:49:55;;;;;;;1.53;1.30;;;6.10;98.20;;;;;;5261229;27;20599;-77
2024/04/20 03:52:24;;;;;;;1.50;1.30;;;6.10;98.20;;;;;;5271143;26;20559;-77
2024/04/20 03:54:52;;;;;;;1.50;1.30;;;6.20;98.20;;;;;;5271469;27;20489;-77
2024/04/20 03:57:20;;;;;;;1.57;1.30;;;6.20;98.20;;;;;;5263570;26;20595;-77
2024/04/20 03:59:49;;;;;;;1.50;1.20;;;6.20;98.20;;;;;;5270310;27;20488;-77
2024/04/20 04:02:22;;;;;;;1.53;1.30;;;6.20;98.20;;;;;;5259403;26;20543;-77
2024/04/20 04:04:51;;;;;;;1.53;1.30;;;6.20;98.20;;;;;;5269426;27;20489;-76
2024/04/20 04:07:19;;;;;;;1.50;1.20;;;6.30;98.20;;;;;;5259146;26;20583;-77
2024/04/20 04:09:48;;;;;;;1.57;1.30;;;6.30;98.20;;;;;;5269347;27;20528;-77
2024/04/20 04:12:16;;;;;;;1.50;1.30;;;6.30;98.20;;;;;;5258603;26;20580;-77
2024/04/20 04:14:44;;;;;;;1.60;1.30;;;6.30;98.20;;;;;;5270049;27;20613;-77
2024/04/20 04:17:13;;;;;;;1.50;1.30;;;6.30;98.20;;;;;;5272019;26;20497;-77
2024/04/20 04:19:44;;;;;;;1.50;1.30;;;6.30;98.20;;;;;;5263039;27;20477;-76
2024/04/20 04:22:14;;;;;;;1.60;1.30;;;6.30;98.20;;;;;;5258278;26;21440;-77
2024/04/20 04:24:43;;;;;;;1.53;1.27;;;6.30;98.20;;;;;;5264397;27;21007;-77
2024/04/20 04:27:13;;;;;;;1.50;1.30;;;6.30;98.20;;;;;;5257424;26;21261;-78
2024/04/20 04:29:42;;;;;;;1.50;1.20;;;6.30;98.20;;;;;;5267227;27;20639;-77
2024/04/20 04:32:11;;;;;;;1.60;1.30;;;6.30;98.20;;;;;;5269410;26;20966;-78
2024/04/20 04:34:39;;;;;;;1.53;1.33;;;6.30;98.20;;;;;;5275252;27;20631;-78
2024/04/20 04:37:10;;;;;;;1.50;1.20;;;6.30;98.20;;;;;;5268565;26;20616;-77
2024/04/20 04:39:39;;;;;;;1.50;1.30;;;6.20;98.20;;;;;;5274581;27;20476;-78
2024/04/20 04:42:07;;;;;;;1.57;1.30;;;6.20;98.20;;;;;;5262226;26;20539;-77
2024/04/20 04:44:37;;;;;;;1.50;1.30;;;6.20;98.20;;;;;;5265718;27;20581;-76
2024/04/20 04:47:08;;;;;;;1.60;1.27;;;6.20;98.20;;;;;;5269380;26;20501;-77
2024/04/20 04:49:38;;;;;;;1.57;1.30;;;6.20;98.20;;;;;;5279414;27;20612;-78
2024/04/20 04:52:19;;;;;;;1.60;1.30;;;6.20;98.20;;;;;;5266807;26;20505;-78
2024/04/20 04:54:47;;;;;;;1.57;1.30;;;6.20;98.20;;;;;;5275705;26;20481;-78
2024/04/20 04:57:16;;;;;;;1.53;1.30;;;6.10;98.20;;;;;;5261001;26;20839;-77
2024/04/20 04:59:44;;;;;;;1.50;1.30;;;6.10;98.20;;;;;;5276158;27;20506;-78
2024/04/20 05:02:13;;;;;;;1.53;1.23;;;6.10;98.20;;;;;;5243466;26;21159;-78
2024/04/20 05:04:42;;;;;;;1.50;1.30;;;6.20;98.20;;;;;;5264943;27;20497;-78
2024/04/20 05:07:13;;;;;;;1.57;1.27;;;6.20;98.20;;;;;;5262872;26;20553;-78
2024/04/20 05:09:41;;;;;;;1.57;1.30;;;6.20;98.20;;;;;;5271626;27;20477;-78
2024/04/20 05:12:10;;;;;;;1.53;1.30;;;6.20;98.20;;;;;;5261827;26;20947;-78
2024/04/20 05:14:38;;;;;;;1.50;1.30;;;6.20;98.20;;;;;;5271915;27;20469;-79
2024/04/20 05:17:07;;;;;;;1.57;1.30;;;6.20;98.20;;;;;;5267682;26;21150;-78
2024/04/20 05:19:35;;;;;;;1.60;1.40;;;6.20;98.20;;;;;;5269496;27;20669;-78
2024/04/20 05:22:03;;;;;;;1.50;1.20;;;6.30;98.20;;;;;;5262803;26;20497;-78
2024/04/20 05:24:34;;;;;;;1.50;1.30;;;6.30;98.20;;;;;;5272838;27;20560;-79
2024/04/20 05:27:03;;;;;;;1.50;1.27;;;6.30;98.20;;;;;;5262478;26;20496;-78
2024/04/20 05:29:31;;;;;;;1.50;1.20;;;6.30;98.20;;;;;;5278204;27;20484;-77
2024/04/20 05:32:00;;;;;;;1.50;1.20;;;6.30;98.20;;;;;;5281718;26;20497;-77
2024/04/20 05:34:28;;;;;;;1.53;1.30;;;6.30;98.20;;;;;;5283917;27;20965;-77
2024/04/20 05:36:56;;;;;;;1.60;1.40;;;6.40;98.20;;;;;;5273931;26;20493;-78
2024/04/20 05:39:25;;;;;;;1.50;1.30;;;6.40;98.20;;;;;;5274834;27;20552;-78
2024/04/20 05:41:56;;;;;;;1.60;1.50;;;6.40;98.20;;;;;;5265935;26;20709;-77
2024/04/20 05:44:27;;;;;;;1.50;1.30;;;6.40;98.20;;;;;;5277571;27;20497;-78
2024/04/20 05:46:55;;;;;;;1.57;1.40;;;6.50;98.20;;;;;;5258349;26;21090;-77
2024/04/20 05:49:24;;;;;;;1.50;1.20;;;6.50;98.20;;;;;;5271514;27;20480;-78
2024/04/20 05:51:52;;;;;;;1.60;1.40;;;6.50;98.20;;;;;;5273194;26;20562;-79
2024/04/20 05:54:19;;;;;;;1.60;1.40;;;6.50;98.20;;;;;;5280289;27;20528;-78
2024/04/20 05:56:47;;;;;;;1.50;1.20;;;6.50;98.20;;;;;;5261367;26;21132;-79
2024/04/20 05:59:18;;;;;;;1.53;1.30;;;6.60;98.20;;;;;;5270437;27;20547;-79
2024/04/20 06:01:47;;;;;;;1.53;1.30;;;6.60;98.20;;;;;;5261120;26;20492;-78
2024/04/20 06:04:16;;;;;;;1.60;1.30;;;6.60;98.20;;;;;;5236441;27;978760;-78
2024/04/20 06:06:44;;;;;;;1.60;1.30;;;6.60;98.20;;;;;;5261582;26;20732;-77
2024/04/20 06:09:13;;;;;;;1.50;1.20;;;6.60;98.20;;;;;;5273586;27;20519;-78
2024/04/20 06:11:41;;;;;;;1.50;1.20;;;6.60;98.20;;;;;;5268086;26;21040;-78
2024/04/20 06:14:10;;;;;;;1.53;1.30;;;6.70;98.20;;;;;;5279538;27;20476;-78
2024/04/20 06:16:41;;;;;;;1.53;1.27;;;6.70;98.20;;;;;;5268291;26;21069;-78
2024/04/20 06:19:09;;;;;;;1.50;1.20;;;6.70;98.20;;;;;;5275214;27;20564;-78
2024/04/20 06:21:37;;;;;;;1.50;1.20;;;6.80;98.20;;;;;;5266909;26;20629;-77
2024/04/20 06:24:07;;;;;;;1.53;1.20;;;6.80;98.20;;;;;;5274732;26;20556;-77
2024/04/20 06:26:35;;;;;;;1.50;1.23;;;6.80;98.20;;;;;;5264385;26;21196;-78
2024/04/20 06:29:04;;;;;;;1.60;1.30;;;6.80;98.20;;;;;;5278066;27;20532;-78
2024/04/20 06:31:32;;;;;;;1.53;1.30;;;6.80;98.20;;;;;;5261272;26;20668;-79
2024/04/20 06:34:03;;;;;;;1.53;1.20;;;6.80;98.20;;;;;;5272353;27;20476;-78
2024/04/20 06:36:32;;;;;;;1.60;1.20;;;6.80;98.20;;;;;;5313157;21;20489;-78
2024/04/20 06:39:00;;;;;;;1.60;1.40;;;6.80;98.20;;;;;;5321720;26;20481;-77
2024/04/20 06:41:29;;;;;;;1.50;1.20;;;6.80;98.20;;;;;;5323218;26;20493;-78
2024/04/20 06:43:58;;;;;;;1.53;1.30;;;6.80;98.20;;;;;;5333430;26;21048;-78
2024/04/20 06:46:27;;;;;;;1.57;1.23;;;6.80;98.20;;;;;;5311866;26;20494;-77
2024/04/20 06:48:55;;;;;;;1.50;1.20;;;6.80;98.20;;;;;;5312541;26;20469;-77
2024/04/20 06:51:28;;;;;;;1.50;1.20;;;6.80;98.20;;;;;;5297525;26;20500;-77
2024/04/20 06:53:57;;;;;;;1.60;1.30;;;6.90;98.20;;;;;;5319769;26;20638;-77
2024/04/20 06:56:26;;;;;;;1.53;1.30;;;6.90;98.20;;;;;;5298679;26;20608;-75
2024/04/20 06:58:55;;;;;;;1.60;1.30;;;6.90;98.20;;;;;;5308755;26;20462;-76
2024/04/20 07:01:23;;;;;;;1.50;1.20;;;6.90;98.20;;;;;;5304074;26;20499;-77
2024/04/20 07:03:52;;;;;;;1.60;1.30;;;6.90;98.20;;;;;;5323007;26;21465;-78
2024/04/20 07:06:20;;;;;;;1.60;1.40;;;7.00;98.20;;;;;;5301453;26;20595;-77
2024/04/20 07:08:51;;;;;;;1.50;1.20;;;7.00;98.20;;;;;;5297827;26;20470;-77
2024/04/20 07:11:20;;;;;;;1.53;1.20;;;7.00;98.20;;;;;;5294914;26;20537;-76
2024/04/20 07:13:49;;;;;;;1.53;1.30;;;7.10;98.20;;;;;;5306876;26;20486;-78
2024/04/20 07:16:17;;;;;;;1.53;1.30;;;7.10;98.20;;;;;;5294780;26;20554;-77
2024/04/20 07:18:46;;;;;;;1.50;1.30;;;7.20;98.20;;;;;;5303269;26;20539;-76
2024/04/20 07:21:15;;;;;;;1.50;1.20;;;7.20;98.20;;;;;;5294995;26;20491;-77
2024/04/20 07:23:43;;;;;;;1.60;1.20;;;7.20;98.20;;;;;;5305308;26;20483;-77
2024/04/20 07:26:15;;;;;;;1.60;1.30;;;7.30;98.20;;;;;;5295146;26;20499;-77
2024/04/20 07:28:43;;;;;;;1.57;1.30;;;7.30;98.20;;;;;;5305037;26;20475;-75
2024/04/20 07:31:11;;;;;;;1.50;1.10;;;7.30;98.20;;;;;;5297996;26;20555;-76
2024/04/20 07:33:40;;;;;;;1.50;1.20;;;7.30;98.20;;;;;;5311085;26;20594;-76
2024/04/20 07:36:09;;;;;;;1.53;1.20;;;7.30;98.20;;;;;;5299410;26;20573;-75
2024/04/20 07:38:37;;;;;;;1.50;1.20;;;7.30;98.20;;;;;;5306236;26;20475;-76
2024/04/20 07:41:06;;;;;;;1.60;1.40;;;7.30;98.20;;;;;;5293846;26;20490;-77
2024/04/20 07:43:37;;;;;;;1.60;1.33;;;7.30;98.20;;;;;;5307869;26;20872;-77
2024/04/20 07:46:06;;;;;;;1.50;1.13;;;7.30;98.20;;;;;;5306022;26;20590;-76
2024/04/20 07:48:35;;;;;;;1.50;1.20;;;7.20;98.20;;;;;;5309407;26;20542;-77
2024/04/20 07:51:03;;;;;;;1.50;1.20;;;7.30;98.20;;;;;;5294639;26;20483;-78
2024/04/20 07:53:32;;;;;;;1.57;1.20;;;7.30;98.20;;;;;;5311168;26;20544;-77
2024/04/20 07:56:00;;;;;;;1.60;1.30;;;7.30;98.20;;;;;;5291153;26;20500;-76
2024/04/20 07:58:28;;;;;;;1.53;1.20;;;7.40;98.20;;;;;;5306187;26;20558;-77
2024/04/20 08:00:59;;;;;;;1.60;1.20;;;7.50;98.20;;;;;;5294019;26;20478;-78
2024/04/20 08:03:28;;;;;;;1.57;1.20;;;7.50;98.20;;;;;;5310405;26;20463;-77
2024/04/20 08:05:56;;;;;;;1.53;1.20;;;7.60;98.20;;;;;;5300341;26;20559;-77
2024/04/20 08:08:25;;;;;;;1.53;1.20;;;7.60;98.20;;;;;;5300831;26;20579;-78
2024/04/20 08:10:54;;;;;;;1.57;1.20;;;7.60;98.20;;;;;;5302191;26;20475;-77
2024/04/20 08:13:22;;;;;;;1.57;1.20;;;7.70;98.20;;;;;;5300040;26;20539;-78
2024/04/20 08:15:51;;;;;;;1.50;1.20;;;7.70;98.20;;;;;;5297837;26;20543;-78
2024/04/20 08:18:23;;;;;;;1.57;1.30;;;7.70;98.20;;;;;;5307906;26;20479;-77
2024/04/20 08:20:53;;;;;;;1.60;1.20;;;7.70;98.20;;;;;;5300407;26;20529;-78
2024/04/20 08:23:22;;;;;;;1.53;1.23;;;7.70;98.20;;;;;;5312498;26;20479;-78
2024/04/20 08:25:51;;;;;;;1.50;1.10;;;7.80;98.20;;;;;;5301662;26;21089;-78
2024/04/20 08:28:20;;;;;;;1.60;1.30;;;7.80;98.20;;;;;;5309408;26;20550;-78
2024/04/20 08:30:48;;;;;;;1.50;1.10;;;7.90;98.20;;;;;;5311346;26;20521;-77
2024/04/20 08:33:17;;;;;;;1.50;1.30;;;8.00;98.20;;;;;;5298318;26;20484;-78
2024/04/20 08:35:48;;;;;;;1.53;1.20;;;8.20;98.20;;;;;;5318770;26;20520;-77
2024/04/20 08:38:17;;;;;;;1.57;1.20;;;8.30;98.20;;;;;;5277651;26;20929;-78
2024/04/20 08:40:47;;;;;;;1.60;1.20;;;8.30;98.20;;;;;;5303932;26;20836;-77
2024/04/20 08:43:16;;;;;;;1.53;1.10;;;8.40;98.20;;;;;;5275160;26;20488;-79
2024/04/20 08:45:45;;;;;;;1.57;1.10;;;8.40;98.20;;;;;;5308843;26;20480;-77
2024/04/20 08:48:16;;;;;;;1.50;1.20;;;8.50;98.20;;;;;;5263438;26;20489;-75
2024/04/20 08:50:48;;;;;;;1.50;1.20;;;8.50;98.20;;;;;;5305621;26;20474;-75
2024/04/20 08:53:19;;;;;;;1.50;1.20;;;8.60;98.20;;;;;;5266903;27;20634;-75
2024/04/20 08:55:48;;;;;;;1.50;1.20;;;8.50;98.20;;;;;;5304247;26;20884;-77
2024/04/20 08:58:14;;;;;;;1.53;1.23;;;8.50;98.20;;;;;;5264650;27;20606;-77
2024/04/20 09:00:45;;;;;;;1.50;1.20;;;8.40;98.20;;;;;;5302934;26;21009;-77
2024/04/20 09:03:14;;;;;;;1.50;1.10;;;8.40;98.20;;;;;;5271873;27;20483;-77
2024/04/20 09:05:45;;;;;;;1.60;1.10;;;8.40;98.20;;;;;;5306141;26;22385;-77
2024/04/20 09:08:18;;;;;;;1.50;1.10;;;8.40;98.20;;;;;;5267442;26;20480;-76
2024/04/20 09:10:47;;;;;;;1.50;1.10;;;8.40;98.20;;;;;;5308449;26;20486;-77
2024/04/20 09:13:18;;;;;;;1.60;1.30;;;8.40;98.20;;;;;;5255187;27;20503;-76
2024/04/20 09:15:48;;;;;;;1.57;1.20;;;8.40;98.20;;;;;;5295957;26;21544;-76
2024/04/20 09:18:18;;;;;;;1.57;1.20;;;8.40;98.20;;;;;;5261117;27;20536;-75
2024/04/20 09:20:50;;;;;;;1.53;1.10;;;8.40;98.20;;;;;;5298339;26;20861;-78
2024/04/20 09:23:23;;;;;;;1.50;1.10;;;8.50;98.20;;;;;;5263621;27;20551;-77
2024/04/20 09:25:53;;;;;;;1.60;1.30;;;8.50;98.20;;;;;;5290533;26;20933;-76
2024/04/20 09:28:22;;;;;;;1.50;1.10;;;8.60;98.20;;;;;;5291981;26;20580;-76
2024/04/20 09:30:53;;;;;;;1.60;1.10;;;8.70;98.20;;;;;;5289286;26;20899;-75
2024/04/20 09:33:23;;;;;;;1.50;1.10;;;8.80;98.20;;;;;;5302736;26;20538;-76
2024/04/20 09:35:52;;;;;;;1.60;1.30;;;8.90;98.20;;;;;;5290277;26;20532;-77
2024/04/20 09:38:23;;;;;;;1.57;1.17;;;9.00;98.20;;;;;;5293008;26;20807;-75
2024/04/20 09:40:55;;;;;;;1.60;1.20;;;9.20;98.20;;;;;;5287249;26;20523;-75
2024/04/20 09:43:25;;;;;;;1.60;1.20;;;9.50;98.20;;;;;;5295690;26;20471;-76
2024/04/20 09:45:54;;;;;;;1.50;1.10;;;9.70;98.20;;;;;;5293072;26;20474;-76
2024/04/20 09:48:28;;;;;;;1.60;1.20;;;10.00;98.20;;;;;;5290617;26;20541;-77
2024/04/20 09:51:07;;;;;;;1.57;1.10;;;10.20;98.20;;;;;;5291099;26;20518;-76
2024/04/20 09:53:41;;;;;;;1.50;1.00;;;10.40;98.20;;;;;;5289510;26;20471;-78
2024/04/20 09:56:11;;;;;;;1.50;1.10;;;10.30;98.20;;;;;;5286561;26;20512;-77
2024/04/20 09:58:42;;;;;;;1.50;1.10;;;10.20;98.20;;;;;;5292380;26;20859;-78
2024/04/20 10:01:12;;;;;;;1.50;1.10;;;10.10;98.20;;;;;;5290370;26;20502;-78
2024/04/20 10:03:41;;;;;;;1.50;1.07;;;10.00;98.20;;;;;;5311324;26;20523;-79
2024/04/20 10:06:18;;;;;;;1.50;1.10;;;10.00;98.20;;;;;;5303656;26;21061;-78
2024/04/20 10:08:51;;;;;;;1.60;1.20;;;9.90;98.20;;;;;;5305598;26;20467;-79
2024/04/20 10:11:22;;;;;;;1.53;1.20;;;10.00;98.20;;;;;;5302865;26;20602;-80
2024/04/20 10:13:54;;;;;;;1.53;1.10;;;10.00;98.20;;;;;;5310952;26;20486;-80
2024/04/20 10:16:23;;;;;;;1.53;1.10;;;10.10;98.20;;;;;;5304227;26;20594;-79
2024/04/20 10:18:52;;;;;;;2.43;2.23;;;10.10;98.20;;;;;;5308820;26;20966;-79
2024/04/20 10:21:21;;;;;;;1.53;1.10;;;10.40;98.20;;;;;;5298653;26;20495;-78
2024/04/20 10:23:53;;;;;;;1.53;1.07;;;10.80;98.20;;;;;;5308660;26;20526;-79
2024/04/20 10:26:37;;;;;;;1.57;1.10;;;11.10;98.20;;;;;;5297434;26;20503;-79
2024/04/20 10:29:10;;;;;;;1.50;1.07;;;11.40;98.20;;;;;;5300545;26;20473;-79
2024/04/20 10:31:40;;;;;;;1.60;1.00;;;11.40;98.20;;;;;;5292895;26;20500;-79
2024/04/20 10:34:09;;;;;;;1.50;1.10;;;11.40;98.20;;;;;;5300765;26;20539;-79
2024/04/20 10:36:43;;;;;;;1.53;1.00;;;11.60;98.20;;;;;;5302804;26;20560;-79
2024/04/20 10:39:14;;;;;;;1.53;1.00;;;11.90;98.20;;;;;;5309355;26;20595;-79
2024/04/20 10:41:43;;;;;;;1.50;1.00;;;12.30;98.20;;;;;;5299521;26;20905;-79
2024/04/20 10:44:16;;;;;;;1.50;1.00;;;12.70;98.20;;;;;;5307202;26;20569;-78
2024/04/20 10:46:53;;;;;;;1.50;0.90;;;13.10;98.20;;;;;;5297899;26;20492;-81
2024/04/20 10:49:24;;;;;;;1.57;1.00;;;13.50;98.20;;;;;;5306585;26;20513;-79
2024/04/20 10:51:55;;;;;;;1.50;1.00;;;13.80;98.20;;;;;;5295327;26;20606;-79
2024/04/20 10:54:27;;;;;;;1.50;1.00;;;14.10;98.20;;;;;;5308506;26;21093;-80
2024/04/20 10:56:59;;;;;;;1.53;0.97;;;14.40;98.20;;;;;;5294108;26;20561;-80
2024/04/20 10:59:39;;;;;;;1.50;1.00;;;14.70;98.20;;;;;;5308669;26;20483;-79
2024/04/20 11:02:10;;;;;;;1.50;0.90;;;14.90;98.20;;;;;;5293330;26;20484;-79
2024/04/20 11:10:39;;;;;;;1.50;0.90;;;15.30;98.20;;;;;;5304563;26;20472;-80
2024/04/20 11:13:07;;;;;;;1.50;1.00;;;15.50;98.20;;;;;;5286240;26;20490;-80
2024/04/20 11:15:37;;;;;;;1.50;0.90;;;15.60;98.20;;;;;;5319114;26;20650;-80
2024/04/20 11:18:07;;;;;;;1.50;1.00;;;15.50;98.20;;;;;;5292592;26;20547;-78
2024/04/20 11:20:37;;;;;;;1.50;0.90;;;15.30;98.20;;;;;;5309502;26;20463;-80
2024/04/20 11:23:06;;;;;;;1.50;0.90;;;14.50;97.20;;;;;;5289301;26;20489;-77
2024/04/20 11:25:38;;;;;;;1.50;1.00;;;13.80;98.20;;;;;;5302406;26;20483;-77
2024/04/20 11:28:10;;;;;;;1.50;1.00;;;13.10;98.20;;;;;;5292390;26;20485;-77
2024/04/20 11:30:41;;;;;;;1.50;1.00;;;12.30;98.20;;;;;;5304384;26;20967;-78
2024/04/20 11:33:10;;;;;;;1.50;1.00;;;11.70;98.20;;;;;;5278063;26;20540;-77
2024/04/20 11:35:39;;;;;;;1.50;1.00;;;11.20;98.20;;;;;;5299152;26;20506;-77
2024/04/20 11:38:09;;;;;;;1.50;1.00;;;10.90;98.20;;;;;;5291531;26;20944;-78
2024/04/20 11:40:40;;;;;;;1.50;1.00;;;10.60;98.20;;;;;;5307886;26;20871;-78
2024/04/20 11:43:09;;;;;;;1.50;1.00;;;10.50;98.20;;;;;;5289181;26;20507;-78
2024/04/20 11:45:48;;;;;;;1.50;1.00;;;10.40;98.20;;;;;;5297868;26;20540;-78
2024/04/20 11:48:16;;;;;;;1.50;1.00;;;10.50;98.20;;;;;;5264493;26;20532;-77
2024/04/20 11:51:01;;;;;;;1.50;1.00;;;10.80;98.20;;;;;;5303376;26;20551;-79
2024/04/20 11:56:22;;;;;;;1.50;1.00;;;11.70;98.20;;;;;;5284883;26;20558;-78
2024/04/20 11:58:52;;;;;;;1.53;1.10;;;12.20;98.20;;;;;;5293460;26;20634;-79
2024/04/20 12:01:21;;;;;;;1.50;1.00;;;12.60;98.20;;;;;;5293357;26;20494;-78
2024/04/20 12:03:50;;;;;;;1.50;1.00;;;13.10;98.20;;;;;;5299720;26;20594;-78
2024/04/20 12:06:20;;;;;;;1.50;0.90;;;13.40;98.20;;;;;;5296123;26;20584;-78
2024/04/20 12:08:49;;;;;;;1.50;1.00;;;13.70;98.20;;;;;;5298036;26;20986;-78
2024/04/20 12:11:21;;;;;;;1.50;1.00;;;13.80;98.20;;;;;;5281576;26;20966;-79
2024/04/20 12:13:49;;;;;;;1.50;1.00;;;13.90;98.20;;;;;;5299316;26;20559;-79
2024/04/20 12:16:20;;;;;;;1.50;1.00;;;13.70;98.20;;;;;;5297317;26;20545;-79
2024/04/20 12:18:50;;;;;;;1.50;1.00;;;13.50;98.20;;;;;;5306324;26;20475;-79
2024/04/20 12:21:19;;;;;;;1.50;1.00;;;13.10;98.20;;;;;;5290306;26;20634;-77
2024/04/20 12:23:48;;;;;;;1.50;1.00;;;12.50;98.20;;;;;;5298106;26;20466;-78
2024/04/20 12:26:16;;;;;;;1.50;0.90;;;12.20;98.20;;;;;;5297118;26;20545;-79
2024/04/20 12:28:48;;;;;;;1.50;1.00;;;12.30;98.20;;;;;;5299772;26;20908;-79
2024/04/20 12:31:16;;;;;;;1.50;0.90;;;12.40;98.20;;;;;;5295733;26;20967;-78
2024/04/20 12:33:45;;;;;;;1.50;1.00;;;12.50;98.20;;;;;;5307735;26;20539;-80
2024/04/20 12:36:19;;;;;;;1.50;1.00;;;12.60;98.20;;;;;;5298901;26;20558;-78
2024/04/20 12:38:48;;;;;;;1.50;0.90;;;13.00;98.20;;;;;;5303355;26;20466;-79
2024/04/20 12:41:20;;;;;;;1.50;1.00;;;13.30;98.20;;;;;;5288021;26;21001;-79
2024/04/20 12:43:52;;;;;;;1.50;1.00;;;13.50;98.20;;;;;;5306306;26;20524;-79
2024/04/20 12:46:21;;;;;;;1.50;1.00;;;13.80;98.20;;;;;;5293608;26;20492;-79
2024/04/20 12:51:27;;;;;;;1.50;1.00;;;13.80;98.20;;;;;;5313078;26;20584;-80
2024/04/20 12:53:56;;;;;;;1.50;0.97;;;13.80;98.20;;;;;;5333265;26;20458;-80
2024/04/20 12:56:24;;;;;;;1.50;1.00;;;14.00;98.20;;;;;;5329731;26;20601;-79
2024/04/20 12:59:08;;;;;;;1.50;0.90;;;14.30;98.20;;;;;;5336480;26;20478;-81
2024/04/20 13:01:36;;;;;;;1.50;1.00;;;14.40;98.20;;;;;;5285310;26;20495;-81
2024/04/20 13:04:05;;;;;;;1.50;1.00;;;14.60;98.20;;;;;;5301343;26;21537;-81
2024/04/20 13:06:38;;;;;;;1.50;1.00;;;14.50;98.20;;;;;;5291692;26;20495;-81
2024/04/20 13:09:06;;;;;;;1.50;1.00;;;14.20;98.20;;;;;;5298893;26;21085;-82
2024/04/20 13:11:35;;;;;;;1.50;0.90;;;14.10;98.20;;;;;;5289241;26;20545;-82
2024/04/20 13:14:13;;;;;;;1.43;0.90;;;13.90;98.20;;;;;;5302665;26;20725;-81
2024/04/20 13:16:42;;;;;;;1.50;1.00;;;13.80;97.80;;;;;;5292126;26;20663;-81
2024/04/20 13:19:10;;;;;;;4.70;2.33;;;13.50;98.20;;;;;;5303004;26;20563;-80